aviador You're here:

YSTW Decoded Metar

TAMWORTH in AUSTRALIA
Report Time2017-11-25 03:30:00
UTC Time2017-11-25 03:48:30
Flight Rules vfr VFR
Wind170° at 07 kt
W.Decomp.*RWY 18: 6.5 kt HW 2.5 kt LCW
RWY 12: 5.4 kt HW 4.4 kt RCW
RWY 24: 1.1 kt HW 6.9 kt LCW
W.Rank170° ranks 5
Current wind is above 170° avg. (6.9)
Visibility9999 m
Phenomena:N/A
Clouds:Scattered 087 Hf
Expected CloudBase > 10,000 ft AGL from Temp-Dew spread
CeilingNone
Temp31°C (ISA +19)
Dew Point06°C (21% RH)
Heat Index29.1°C
AAT27.6°C
QNH1014 hPa
Density Alt3,573 ft
Elevation1,345 ft
Report Wrong Elevation
Raw Report
YSTW 250330Z AUTO 17007KT 150V210 9999 // SCT087 31/06 Q1014=

Extra information for YSTW:More info

Metar Taf Metar & Taf Last 4 Metars F.Rules Stats Wind Profile Meteogram Temp Stats Airport Information Weather charts Add Link Nearby VenuesMetar ALERT Operation Metar Decoded Social comments